Time;durP1;ratioP1;P1;durP2;ratioP2;P2;SDS_P1;SDS_P2;PMS_P1;PMS_P2;Temp;Humidity;BMP_temperature;BMP_pressure;BME280_temperature;BME280_humidity;BME280_pressure;Samples;Min_cycle;Max_cycle;Signal;HPM_P1;HPM_P2
2023/08/19 00:01:48;;;;;;;4.33;3.93;;;;;;;;;;4878785;29;20631;-66
2023/08/19 00:04:17;;;;;;;6.20;3.97;;;;;;;;;;4878331;29;20674;-66
2023/08/19 00:06:45;;;;;;;6.27;4.07;;;;;;;;;;4877324;29;21272;-66
2023/08/19 00:09:13;;;;;;;4.80;3.77;;;;;;;;;;4863146;29;20661;-66
2023/08/19 00:11:41;;;;;;;7.57;4.23;;;;;;;;;;4879162;29;21216;-66
2023/08/19 00:14:10;;;;;;;4.63;3.80;;;;;;;;;;4879789;29;20774;-67
2023/08/19 00:16:38;;;;;;;4.27;3.80;;;;;;;;;;4879202;29;20627;-66
2023/08/19 00:19:07;;;;;;;6.00;4.67;;;;;;;;;;4877772;29;20627;-66
2023/08/19 00:21:36;;;;;;;6.10;4.00;;;;;;;;;;4878457;29;20635;-66
2023/08/19 00:24:04;;;;;;;6.00;3.90;;;;;;;;;;4879150;29;20650;-67
2023/08/19 00:26:32;;;;;;;6.60;3.90;;;;;;;;;;4879347;29;20631;-66
2023/08/19 00:29:00;;;;;;;5.60;3.70;;;;;;;;;;4862745;29;20989;-66
2023/08/19 00:31:29;;;;;;;4.90;3.90;;;;;;;;;;4879051;29;20759;-67
2023/08/19 00:33:57;;;;;;;4.67;4.13;;;;;;;;;;4879238;29;20629;-66
2023/08/19 00:36:26;;;;;;;6.20;4.27;;;;;;;;;;4862713;29;20619;-67
2023/08/19 00:39:00;;;;;;;4.10;3.80;;;;;;;;;;4878302;29;20595;-67
2023/08/19 00:41:28;;;;;;;6.07;4.23;;;;;;;;;;4878658;29;20619;-66
2023/08/19 00:43:57;;;;;;;6.10;4.10;;;;;;;;;;4879171;29;20633;-66
2023/08/19 00:46:26;;;;;;;4.20;3.90;;;;;;;;;;4878739;29;20686;-67
2023/08/19 00:48:54;;;;;;;8.30;3.80;;;;;;;;;;4879596;29;20654;-66
2023/08/19 00:51:22;;;;;;;12.10;4.50;;;;;;;;;;4878625;29;20671;-66
2023/08/19 00:53:53;;;;;;;4.30;3.90;;;;;;;;;;4879755;29;20627;-65
2023/08/19 00:56:21;;;;;;;4.30;3.90;;;;;;;;;;4878753;29;20605;-66
2023/08/19 00:58:50;;;;;;;5.03;4.60;;;;;;;;;;4878672;29;20615;-66
2023/08/19 01:01:18;;;;;;;7.70;4.00;;;;;;;;;;4885710;29;20747;-69
2023/08/19 01:03:46;;;;;;;4.13;3.30;;;;;;;;;;4892436;29;20698;-69
2023/08/19 01:06:23;;;;;;;4.10;3.70;;;;;;;;;;4878372;29;20658;-69
2023/08/19 01:08:57;;;;;;;5.10;4.10;;;;;;;;;;4896802;29;20653;-69
2023/08/19 01:11:38;;;;;;;4.63;3.80;;;;;;;;;;4879008;29;20746;-67
2023/08/19 01:14:08;;;;;;;5.57;3.60;;;;;;;;;;4895946;29;20642;-69
2023/08/19 01:16:37;;;;;;;3.97;3.60;;;;;;;;;;4896175;29;20635;-68
2023/08/19 01:19:08;;;;;;;4.90;4.27;;;;;;;;;;4896182;29;20711;-69
2023/08/19 01:21:37;;;;;;;3.90;3.70;;;;;;;;;;4895354;29;20670;-68
2023/08/19 01:24:08;;;;;;;4.80;3.70;;;;;;;;;;4895908;29;20655;-69
2023/08/19 01:26:37;;;;;;;5.07;4.57;;;;;;;;;;4878732;29;20627;-68
2023/08/19 01:29:06;;;;;;;6.73;4.33;;;;;;;;;;4888042;29;20640;-69
2023/08/19 01:31:34;;;;;;;5.60;4.20;;;;;;;;;;4888041;29;20691;-69
2023/08/19 01:34:02;;;;;;;4.57;4.10;;;;;;;;;;4896686;29;20643;-69
2023/08/19 01:36:34;;;;;;;5.13;3.60;;;;;;;;;;4879237;29;20643;-69
2023/08/19 01:39:03;;;;;;;4.87;3.93;;;;;;;;;;4896870;29;20688;-69
2023/08/19 01:41:32;;;;;;;4.50;4.03;;;;;;;;;;4896067;29;20643;-69
2023/08/19 01:44:02;;;;;;;4.50;3.80;;;;;;;;;;4879304;29;21047;-69
2023/08/19 01:46:30;;;;;;;5.47;3.83;;;;;;;;;;4893592;29;20667;-68
2023/08/19 01:48:58;;;;;;;5.17;4.10;;;;;;;;;;4897926;29;20636;-70
2023/08/19 01:51:28;;;;;;;7.37;4.00;;;;;;;;;;4896975;29;20690;-68
2023/08/19 01:53:57;;;;;;;4.97;4.57;;;;;;;;;;4877591;29;20623;-68
2023/08/19 01:56:25;;;;;;;4.57;4.13;;;;;;;;;;4894196;29;20654;-68
2023/08/19 01:58:54;;;;;;;4.33;3.73;;;;;;;;;;4894491;29;20653;-69
2023/08/19 02:01:23;;;;;;;4.70;4.17;;;;;;;;;;4893330;29;20666;-69
2023/08/19 02:03:52;;;;;;;7.90;4.10;;;;;;;;;;4891380;29;20718;-68
2023/08/19 02:06:21;;;;;;;4.50;3.63;;;;;;;;;;4883382;29;20662;-68
2023/08/19 02:08:49;;;;;;;7.40;4.27;;;;;;;;;;4894010;29;20662;-69
2023/08/19 02:11:19;;;;;;;4.23;3.80;;;;;;;;;;4894435;29;20683;-69
2023/08/19 02:13:47;;;;;;;5.80;4.30;;;;;;;;;;4893642;29;20654;-69
2023/08/19 02:16:16;;;;;;;6.83;4.07;;;;;;;;;;4893710;29;20687;-68
2023/08/19 02:18:45;;;;;;;6.37;4.67;;;;;;;;;;4874778;29;20710;-69
2023/08/19 02:21:14;;;;;;;6.20;4.50;;;;;;;;;;4892441;29;21069;-69
2023/08/19 02:23:42;;;;;;;6.27;3.80;;;;;;;;;;4892149;29;20663;-69
2023/08/19 02:26:10;;;;;;;4.30;3.67;;;;;;;;;;4877251;29;20675;-69
2023/08/19 02:28:38;;;;;;;4.90;4.50;;;;;;;;;;4892438;29;20710;-68
2023/08/19 02:31:07;;;;;;;5.23;4.73;;;;;;;;;;4876520;29;21130;-68
2023/08/19 02:33:36;;;;;;;5.17;3.97;;;;;;;;;;4892291;29;20666;-68
2023/08/19 02:36:06;;;;;;;5.60;3.80;;;;;;;;;;4892679;29;21051;-69
2023/08/19 02:38:34;;;;;;;4.57;4.17;;;;;;;;;;4892236;29;20639;-69
2023/08/19 02:41:02;;;;;;;5.27;3.53;;;;;;;;;;4867707;29;20710;-65
2023/08/19 02:43:31;;;;;;;7.53;4.50;;;;;;;;;;4866672;29;21118;-66
2023/08/19 02:46:01;;;;;;;4.80;4.40;;;;;;;;;;4883258;29;20726;-64
2023/08/19 02:48:29;;;;;;;8.50;4.70;;;;;;;;;;4882732;29;20723;-66
2023/08/19 02:50:57;;;;;;;6.87;4.20;;;;;;;;;;4883188;29;20738;-64
2023/08/19 02:53:28;;;;;;;6.80;3.60;;;;;;;;;;4866124;29;20633;-66
2023/08/19 02:55:57;;;;;;;5.07;4.60;;;;;;;;;;4850822;29;20710;-65
2023/08/19 02:58:26;;;;;;;5.43;3.90;;;;;;;;;;4883504;29;20704;-68
2023/08/19 03:00:54;;;;;;;11.83;5.40;;;;;;;;;;4882827;29;21219;-65
2023/08/19 03:03:22;;;;;;;4.80;3.93;;;;;;;;;;4864164;29;20856;-65
2023/08/19 03:05:50;;;;;;;5.50;4.20;;;;;;;;;;4881282;29;20718;-64
2023/08/19 03:08:19;;;;;;;4.20;3.83;;;;;;;;;;4882513;29;20719;-64
2023/08/19 03:10:48;;;;;;;5.47;4.40;;;;;;;;;;4882912;29;20677;-64
2023/08/19 03:13:17;;;;;;;6.47;4.47;;;;;;;;;;4882446;29;20702;-65
2023/08/19 03:15:45;;;;;;;4.60;4.17;;;;;;;;;;4882259;29;21083;-64
2023/08/19 03:18:14;;;;;;;6.10;4.70;;;;;;;;;;4882210;29;20706;-64
2023/08/19 03:20:43;;;;;;;6.80;4.50;;;;;;;;;;4866609;29;20868;-64
2023/08/19 03:23:11;;;;;;;5.10;3.97;;;;;;;;;;4850658;29;20695;-65
2023/08/19 03:25:39;;;;;;;7.87;4.67;;;;;;;;;;4882456;29;20735;-64
2023/08/19 03:28:09;;;;;;;6.13;4.10;;;;;;;;;;4882367;29;20754;-64
2023/08/19 03:30:38;;;;;;;6.27;4.90;;;;;;;;;;4868151;29;20671;-64
2023/08/19 03:33:06;;;;;;;4.80;4.27;;;;;;;;;;4869904;29;20721;-64
2023/08/19 03:35:35;;;;;;;5.53;5.03;;;;;;;;;;4882077;29;20725;-68
2023/08/19 03:38:03;;;;;;;6.80;4.80;;;;;;;;;;4872903;29;20639;-66
2023/08/19 03:40:32;;;;;;;5.30;4.03;;;;;;;;;;4880434;29;20631;-66
2023/08/19 03:43:00;;;;;;;5.57;4.60;;;;;;;;;;4863046;29;20635;-66
2023/08/19 03:45:36;;;;;;;5.00;4.50;;;;;;;;;;4850960;29;20620;-66
2023/08/19 03:48:04;;;;;;;5.73;4.50;;;;;;;;;;4879645;29;20626;-66
2023/08/19 03:50:32;;;;;;;4.13;3.73;;;;;;;;;;4861579;29;20620;-66
2023/08/19 03:53:01;;;;;;;4.37;3.97;;;;;;;;;;4860731;29;20580;-66
2023/08/19 03:55:30;;;;;;;5.20;4.70;;;;;;;;;;4878758;29;20639;-66
2023/08/19 03:57:58;;;;;;;4.87;4.00;;;;;;;;;;4879040;29;20627;-66
2023/08/19 04:00:27;;;;;;;7.60;4.27;;;;;;;;;;4879304;29;20717;-66
2023/08/19 04:02:56;;;;;;;5.53;4.23;;;;;;;;;;4879078;29;20631;-67
2023/08/19 04:05:25;;;;;;;9.83;4.73;;;;;;;;;;4855689;29;20647;-69
2023/08/19 04:07:53;;;;;;;5.10;4.27;;;;;;;;;;4859938;29;21131;-69
2023/08/19 04:10:21;;;;;;;5.50;4.77;;;;;;;;;;4861452;29;20620;-69
2023/08/19 04:12:49;;;;;;;5.17;4.60;;;;;;;;;;4863736;29;20668;-65
2023/08/19 04:15:18;;;;;;;8.17;4.27;;;;;;;;;;4867631;29;20703;-64
2023/08/19 04:17:49;;;;;;;4.93;4.40;;;;;;;;;;4865606;29;21213;-64
2023/08/19 04:20:19;;;;;;;5.83;4.63;;;;;;;;;;4865601;29;20714;-66
2023/08/19 04:22:49;;;;;;;5.83;4.23;;;;;;;;;;4867218;29;20711;-64
2023/08/19 04:25:18;;;;;;;5.23;4.73;;;;;;;;;;4866172;29;21075;-64
2023/08/19 04:27:46;;;;;;;10.13;5.50;;;;;;;;;;4865511;29;20700;-64
2023/08/19 04:30:15;;;;;;;5.83;5.33;;;;;;;;;;4866208;29;21269;-64
2023/08/19 04:32:43;;;;;;;5.37;4.80;;;;;;;;;;4866244;29;20750;-64
2023/08/19 04:35:12;;;;;;;15.10;4.40;;;;;;;;;;4875193;29;20662;-68
2023/08/19 04:37:42;;;;;;;5.23;4.83;;;;;;;;;;4876667;29;20660;-69
2023/08/19 04:40:11;;;;;;;5.13;4.60;;;;;;;;;;4877550;29;20664;-68
2023/08/19 04:42:44;;;;;;;4.77;4.23;;;;;;;;;;4877875;29;20635;-68
2023/08/19 04:45:13;;;;;;;5.23;4.63;;;;;;;;;;4877720;29;20671;-68
2023/08/19 04:47:46;;;;;;;10.37;5.20;;;;;;;;;;4865150;29;20639;-68
2023/08/19 04:50:15;;;;;;;8.37;5.07;;;;;;;;;;4876672;29;20993;-68
2023/08/19 04:52:44;;;;;;;7.23;5.00;;;;;;;;;;4876776;29;20739;-68
2023/08/19 04:55:14;;;;;;;5.23;4.73;;;;;;;;;;4878121;29;20663;-68
2023/08/19 04:57:43;;;;;;;8.33;5.33;;;;;;;;;;4861867;29;20621;-68
2023/08/19 05:00:13;;;;;;;5.03;4.60;;;;;;;;;;4877384;29;20624;-68
2023/08/19 05:02:41;;;;;;;6.23;5.37;;;;;;;;;;4875743;29;20684;-68
2023/08/19 05:05:09;;;;;;;6.50;5.83;;;;;;;;;;4856914;29;20677;-68
2023/08/19 05:07:38;;;;;;;7.73;5.30;;;;;;;;;;4867892;29;20652;-68
2023/08/19 05:10:08;;;;;;;4.97;4.53;;;;;;;;;;4857109;29;20645;-69
2023/08/19 05:12:36;;;;;;;6.17;5.63;;;;;;;;;;4857284;29;20777;-68
2023/08/19 05:15:06;;;;;;;6.13;5.57;;;;;;;;;;4857504;29;20657;-70
2023/08/19 05:17:34;;;;;;;7.30;5.40;;;;;;;;;;4857548;29;20667;-69
2023/08/19 05:20:03;;;;;;;5.57;5.13;;;;;;;;;;4858212;29;21117;-68
2023/08/19 05:22:31;;;;;;;10.20;5.10;;;;;;;;;;4841682;29;20668;-68
2023/08/19 05:25:00;;;;;;;10.20;5.43;;;;;;;;;;4856765;29;20653;-68
2023/08/19 05:27:29;;;;;;;5.63;5.23;;;;;;;;;;4856737;29;20667;-68
2023/08/19 05:29:57;;;;;;;11.77;4.90;;;;;;;;;;4856672;29;21198;-68
2023/08/19 05:32:25;;;;;;;6.23;5.20;;;;;;;;;;4857956;29;20724;-67
2023/08/19 05:34:54;;;;;;;7.10;5.00;;;;;;;;;;4857591;29;20663;-68
2023/08/19 05:37:22;;;;;;;5.33;4.80;;;;;;;;;;4858417;29;20649;-68
2023/08/19 05:39:50;;;;;;;5.87;4.77;;;;;;;;;;4857598;29;20660;-68
2023/08/19 05:42:18;;;;;;;10.50;5.30;;;;;;;;;;4858397;29;20651;-69
2023/08/19 05:44:48;;;;;;;5.60;5.10;;;;;;;;;;4857631;29;20668;-68
2023/08/19 05:47:16;;;;;;;5.37;4.93;;;;;;;;;;4858643;29;20676;-68
2023/08/19 05:49:44;;;;;;;8.03;4.80;;;;;;;;;;4857628;29;20649;-69
2023/08/19 05:52:12;;;;;;;10.20;4.93;;;;;;;;;;4857727;29;20696;-68
2023/08/19 05:54:44;;;;;;;5.40;4.90;;;;;;;;;;4857785;29;20649;-68
2023/08/19 05:57:13;;;;;;;7.30;5.00;;;;;;;;;;4853289;29;20613;-69
2023/08/19 05:59:41;;;;;;;4.90;4.43;;;;;;;;;;4857390;29;20644;-69
2023/08/19 06:02:10;;;;;;;7.17;4.80;;;;;;;;;;4857187;29;20633;-68
2023/08/19 06:04:39;;;;;;;5.43;4.93;;;;;;;;;;4874072;29;20704;-68
2023/08/19 06:07:07;;;;;;;6.00;4.27;;;;;;;;;;4892548;29;20662;-69
2023/08/19 06:09:35;;;;;;;7.03;4.37;;;;;;;;;;4894099;29;20659;-68
2023/08/19 06:12:03;;;;;;;12.10;4.87;;;;;;;;;;4893569;29;20690;-68
2023/08/19 06:14:31;;;;;;;7.83;4.60;;;;;;;;;;4879634;29;21173;-69
2023/08/19 06:17:00;;;;;;;7.50;4.60;;;;;;;;;;4896326;29;20671;-67
2023/08/19 06:19:30;;;;;;;7.00;5.20;;;;;;;;;;4895959;29;20611;-69
2023/08/19 06:21:59;;;;;;;9.00;4.57;;;;;;;;;;4893029;29;20647;-68
2023/08/19 06:24:27;;;;;;;5.57;4.83;;;;;;;;;;4894841;29;20651;-68
2023/08/19 06:26:56;;;;;;;6.87;5.47;;;;;;;;;;4894365;29;20737;-68
2023/08/19 06:29:24;;;;;;;8.03;5.40;;;;;;;;;;4894398;29;20694;-69
2023/08/19 06:31:52;;;;;;;12.40;5.20;;;;;;;;;;4895518;29;20647;-69
2023/08/19 06:34:21;;;;;;;9.97;5.43;;;;;;;;;;4879056;29;20647;-69
2023/08/19 06:36:52;;;;;;;10.57;5.33;;;;;;;;;;4894888;29;20658;-69
2023/08/19 06:39:24;;;;;;;6.90;5.83;;;;;;;;;;4894771;29;20635;-69
2023/08/19 06:41:57;;;;;;;9.03;6.10;;;;;;;;;;4893683;29;20651;-68
2023/08/19 06:44:26;;;;;;;7.00;6.30;;;;;;;;;;4875914;29;20670;-68
2023/08/19 06:46:56;;;;;;;14.10;7.10;;;;;;;;;;4894122;29;20666;-69
2023/08/19 06:49:25;;;;;;;7.63;6.97;;;;;;;;;;4894336;29;20615;-68
2023/08/19 06:51:55;;;;;;;8.07;6.50;;;;;;;;;;4893245;29;20667;-68
2023/08/19 06:54:23;;;;;;;7.53;6.87;;;;;;;;;;4891925;29;20646;-68
2023/08/19 06:56:52;;;;;;;10.30;6.60;;;;;;;;;;4893947;29;20643;-68
2023/08/19 06:59:21;;;;;;;7.23;6.53;;;;;;;;;;4889673;29;20646;-69
2023/08/19 07:01:51;;;;;;;8.87;7.20;;;;;;;;;;4865504;29;20706;-69
2023/08/19 07:04:22;;;;;;;7.03;6.43;;;;;;;;;;4880446;29;20675;-69
2023/08/19 07:06:51;;;;;;;7.40;6.70;;;;;;;;;;4884538;29;20713;-69
2023/08/19 07:09:23;;;;;;;8.80;6.60;;;;;;;;;;4882673;29;21117;-69
2023/08/19 07:11:53;;;;;;;7.20;6.40;;;;;;;;;;4887654;29;20682;-69
2023/08/19 07:14:22;;;;;;;7.93;7.00;;;;;;;;;;4885542;29;20706;-69
2023/08/19 07:16:51;;;;;;;8.40;6.63;;;;;;;;;;4885968;29;20822;-69
2023/08/19 07:19:23;;;;;;;7.77;6.83;;;;;;;;;;4884616;29;21045;-69
2023/08/19 07:21:52;;;;;;;9.80;6.83;;;;;;;;;;4886594;29;21049;-69
2023/08/19 07:24:22;;;;;;;8.73;7.13;;;;;;;;;;4884964;29;20726;-69
2023/08/19 07:26:50;;;;;;;8.10;7.50;;;;;;;;;;4882296;29;20631;-69
2023/08/19 07:29:19;;;;;;;17.83;7.20;;;;;;;;;;4883875;29;20635;-69
2023/08/19 07:31:48;;;;;;;9.10;7.13;;;;;;;;;;4883503;29;21047;-69
2023/08/19 07:34:17;;;;;;;7.77;7.03;;;;;;;;;;4867651;29;20678;-70
2023/08/19 07:36:45;;;;;;;10.50;7.20;;;;;;;;;;4884245;29;20637;-68
2023/08/19 07:39:13;;;;;;;11.10;7.00;;;;;;;;;;4883388;29;21083;-69
2023/08/19 07:41:43;;;;;;;16.77;7.47;;;;;;;;;;4883441;29;20686;-70
2023/08/19 07:44:11;;;;;;;7.77;7.00;;;;;;;;;;4884786;29;20978;-69
2023/08/19 07:46:39;;;;;;;7.37;6.50;;;;;;;;;;4883640;29;20623;-69
2023/08/19 07:49:07;;;;;;;9.77;7.00;;;;;;;;;;4867635;29;21062;-69
2023/08/19 07:51:36;;;;;;;8.30;7.23;;;;;;;;;;4883016;29;20699;-68
2023/08/19 07:54:04;;;;;;;9.03;6.87;;;;;;;;;;4885033;29;20735;-69
2023/08/19 07:56:32;;;;;;;13.33;7.10;;;;;;;;;;4882300;29;21190;-69
2023/08/19 07:59:03;;;;;;;9.20;7.63;;;;;;;;;;4884446;29;20638;-69
2023/08/19 08:01:31;;;;;;;8.10;7.30;;;;;;;;;;4882883;29;20633;-69
2023/08/19 08:03:59;;;;;;;7.43;6.73;;;;;;;;;;4879990;29;20765;-70
2023/08/19 08:06:27;;;;;;;7.97;7.17;;;;;;;;;;4877280;29;21350;-69
2023/08/19 08:08:56;;;;;;;9.10;7.20;;;;;;;;;;4877016;29;20986;-69
2023/08/19 08:11:26;;;;;;;8.80;8.10;;;;;;;;;;4881364;29;21150;-69
2023/08/19 08:13:54;;;;;;;7.80;7.10;;;;;;;;;;4880697;29;20661;-71
2023/08/19 08:16:24;;;;;;;7.97;7.17;;;;;;;;;;4867491;29;20685;-70
2023/08/19 08:18:52;;;;;;;9.03;8.30;;;;;;;;;;4866676;29;20690;-71
2023/08/19 08:21:20;;;;;;;9.53;8.20;;;;;;;;;;4875568;29;21197;-71
2023/08/19 08:23:49;;;;;;;8.90;8.00;;;;;;;;;;4878052;29;20621;-71
2023/08/19 08:26:17;;;;;;;7.93;7.33;;;;;;;;;;4877687;29;20649;-72
2023/08/19 08:28:46;;;;;;;10.90;7.63;;;;;;;;;;4874672;29;21208;-73
2023/08/19 08:31:14;;;;;;;8.27;7.60;;;;;;;;;;4873332;29;20637;-72
2023/08/19 08:33:44;;;;;;;7.50;6.80;;;;;;;;;;4861959;29;21070;-76
2023/08/19 08:36:12;;;;;;;12.03;7.40;;;;;;;;;;4890627;29;20734;-69
2023/08/19 08:38:40;;;;;;;8.67;7.70;;;;;;;;;;4884219;29;20726;-71
2023/08/19 08:41:10;;;;;;;9.07;7.57;;;;;;;;;;4889450;29;20694;-71
2023/08/19 08:43:39;;;;;;;8.80;8.07;;;;;;;;;;4884263;29;20738;-71
2023/08/19 08:46:07;;;;;;;8.33;7.73;;;;;;;;;;4870988;29;21009;-71
2023/08/19 08:48:36;;;;;;;8.93;8.10;;;;;;;;;;4890231;29;20730;-70
2023/08/19 08:51:06;;;;;;;8.73;7.57;;;;;;;;;;4874981;29;20715;-70
2023/08/19 08:53:35;;;;;;;8.60;7.80;;;;;;;;;;4873928;29;20726;-71
2023/08/19 08:56:03;;;;;;;8.60;7.70;;;;;;;;;;4890619;29;20791;-70
2023/08/19 08:58:31;;;;;;;8.33;7.73;;;;;;;;;;4890121;29;20836;-70
2023/08/19 09:01:00;;;;;;;9.90;8.73;;;;;;;;;;4886604;29;20703;-70
2023/08/19 09:03:30;;;;;;;19.80;17.70;;;;;;;;;;4886588;29;20743;-70
2023/08/19 09:06:00;;;;;;;29.00;26.00;;;;;;;;;;4886788;29;20706;-70
2023/08/19 09:08:32;;;;;;;11.33;10.13;;;;;;;;;;4871214;29;21077;-71
2023/08/19 09:11:01;;;;;;;10.77;9.87;;;;;;;;;;4883112;29;21054;-71
2023/08/19 09:13:30;;;;;;;12.80;9.17;;;;;;;;;;4887112;29;21190;-71
2023/08/19 09:15:58;;;;;;;9.83;7.93;;;;;;;;;;4887687;29;20707;-71
2023/08/19 09:18:27;;;;;;;12.30;11.10;;;;;;;;;;4883563;29;20734;-72
2023/08/19 09:20:55;;;;;;;25.20;22.77;;;;;;;;;;4888051;29;20699;-71
2023/08/19 09:23:24;;;;;;;13.30;12.00;;;;;;;;;;4884248;29;20702;-71
2023/08/19 09:25:53;;;;;;;11.33;9.90;;;;;;;;;;4882647;29;20698;-70
2023/08/19 09:28:21;;;;;;;14.13;10.33;;;;;;;;;;4885777;29;20725;-70
2023/08/19 09:30:50;;;;;;;11.70;9.30;;;;;;;;;;4884000;29;21045;-70
2023/08/19 09:33:23;;;;;;;9.47;8.33;;;;;;;;;;4874109;29;20726;-70
2023/08/19 09:35:57;;;;;;;9.87;8.87;;;;;;;;;;4854088;29;20619;-71
2023/08/19 09:38:26;;;;;;;12.33;11.23;;;;;;;;;;4882116;29;20698;-68
2023/08/19 09:41:03;;;;;;;12.03;10.77;;;;;;;;;;4883393;29;20627;-71
2023/08/19 09:43:31;;;;;;;10.57;8.90;;;;;;;;;;4884415;29;21249;-69
2023/08/19 09:46:00;;;;;;;10.27;9.00;;;;;;;;;;4883880;29;20726;-70
2023/08/19 09:48:28;;;;;;;10.10;9.27;;;;;;;;;;4884486;29;20710;-71
2023/08/19 09:50:57;;;;;;;9.50;8.50;;;;;;;;;;4882385;29;20703;-71
2023/08/19 09:53:28;;;;;;;10.23;9.20;;;;;;;;;;4882449;29;20699;-71
2023/08/19 09:55:57;;;;;;;10.50;9.43;;;;;;;;;;4882312;29;20770;-71
2023/08/19 09:58:26;;;;;;;9.00;8.20;;;;;;;;;;4876485;29;21260;-70
2023/08/19 10:00:56;;;;;;;10.37;9.57;;;;;;;;;;4882286;29;21165;-71
2023/08/19 10:03:25;;;;;;;10.47;9.57;;;;;;;;;;4881659;29;20757;-71
2023/08/19 10:05:53;;;;;;;9.73;8.90;;;;;;;;;;4875333;29;20718;-71
2023/08/19 10:08:24;;;;;;;9.97;8.93;;;;;;;;;;4857355;29;20643;-71
2023/08/19 10:10:52;;;;;;;9.53;8.73;;;;;;;;;;4883546;29;20691;-71
2023/08/19 10:13:22;;;;;;;10.67;9.77;;;;;;;;;;4881154;29;20639;-71
2023/08/19 10:15:53;;;;;;;10.57;9.53;;;;;;;;;;4882769;29;20658;-71
2023/08/19 10:18:24;;;;;;;9.83;9.13;;;;;;;;;;4882748;29;20674;-71
2023/08/19 10:20:54;;;;;;;10.40;8.30;;;;;;;;;;4880830;29;20695;-71
2023/08/19 10:23:22;;;;;;;10.43;8.80;;;;;;;;;;4882811;29;20698;-71
2023/08/19 10:25:51;;;;;;;10.07;9.07;;;;;;;;;;4882227;29;21068;-72
2023/08/19 10:28:24;;;;;;;10.03;9.23;;;;;;;;;;4879649;29;21074;-71
2023/08/19 10:31:06;;;;;;;13.13;8.90;;;;;;;;;;4883062;29;20686;-71
2023/08/19 10:33:39;;;;;;;10.10;9.20;;;;;;;;;;4883299;29;20678;-71
2023/08/19 10:36:08;;;;;;;9.70;8.80;;;;;;;;;;4886474;29;20682;-71
2023/08/19 10:38:43;;;;;;;14.53;9.70;;;;;;;;;;4883052;29;20710;-71
2023/08/19 10:41:19;;;;;;;13.60;8.87;;;;;;;;;;4883832;29;20650;-70
2023/08/19 10:43:49;;;;;;;9.30;8.60;;;;;;;;;;4881298;29;20733;-69
2023/08/19 10:46:21;;;;;;;9.93;9.00;;;;;;;;;;4883022;29;20719;-70
2023/08/19 10:48:51;;;;;;;9.23;8.63;;;;;;;;;;4883317;29;20686;-70
2023/08/19 10:51:19;;;;;;;9.63;8.60;;;;;;;;;;4883282;29;21475;-70
2023/08/19 10:53:50;;;;;;;9.43;8.67;;;;;;;;;;4883084;29;20714;-69
2023/08/19 10:56:20;;;;;;;14.23;9.80;;;;;;;;;;4883704;29;20706;-70
2023/08/19 10:58:49;;;;;;;9.83;8.93;;;;;;;;;;4882838;29;20642;-70
2023/08/19 11:01:18;;;;;;;9.43;8.53;;;;;;;;;;4882559;29;20718;-70
2023/08/19 11:03:47;;;;;;;9.50;8.30;;;;;;;;;;4881235;29;20738;-69
2023/08/19 11:06:15;;;;;;;10.27;9.33;;;;;;;;;;4865685;29;20627;-69
2023/08/19 11:08:44;;;;;;;10.67;9.77;;;;;;;;;;4883786;29;20734;-70
2023/08/19 11:11:16;;;;;;;10.17;9.30;;;;;;;;;;4883461;29;20714;-70
2023/08/19 11:13:45;;;;;;;10.23;9.43;;;;;;;;;;4883497;29;20698;-70
2023/08/19 11:16:13;;;;;;;10.23;9.43;;;;;;;;;;4883163;29;20747;-69
2023/08/19 11:18:42;;;;;;;10.13;9.27;;;;;;;;;;4883630;29;20703;-70
2023/08/19 11:21:12;;;;;;;14.60;9.10;;;;;;;;;;4883419;29;20711;-70
2023/08/19 11:23:40;;;;;;;10.40;8.33;;;;;;;;;;4882958;29;20702;-70
2023/08/19 11:26:08;;;;;;;17.33;9.80;;;;;;;;;;4883690;29;20731;-70
2023/08/19 11:28:37;;;;;;;10.30;9.40;;;;;;;;;;4883185;29;20710;-70
2023/08/19 11:31:05;;;;;;;15.40;9.30;;;;;;;;;;4883510;29;20714;-69
2023/08/19 11:33:34;;;;;;;9.07;8.57;;;;;;;;;;4882212;29;21554;-70
2023/08/19 11:36:02;;;;;;;10.37;9.67;;;;;;;;;;4884669;29;20745;-70
2023/08/19 11:38:32;;;;;;;9.23;8.27;;;;;;;;;;4883617;29;20729;-69
2023/08/19 11:41:00;;;;;;;10.30;9.37;;;;;;;;;;4883599;29;20687;-70
2023/08/19 11:43:31;;;;;;;9.57;8.77;;;;;;;;;;4883864;29;20703;-70
2023/08/19 11:45:59;;;;;;;8.57;7.97;;;;;;;;;;4877124;29;20994;-73
2023/08/19 11:48:27;;;;;;;8.60;8.00;;;;;;;;;;4883490;29;21274;-70
2023/08/19 11:50:55;;;;;;;9.67;8.97;;;;;;;;;;4884825;29;20616;-68
2023/08/19 11:53:25;;;;;;;9.77;9.13;;;;;;;;;;4887914;29;20760;-70
2023/08/19 11:55:57;;;;;;;9.10;8.20;;;;;;;;;;4887983;29;20741;-71
2023/08/19 11:58:27;;;;;;;9.60;8.90;;;;;;;;;;4884755;29;20699;-70
2023/08/19 12:00:55;;;;;;;9.17;8.37;;;;;;;;;;4886613;29;20730;-69
2023/08/19 12:03:24;;;;;;;9.67;8.83;;;;;;;;;;4885249;29;20746;-70
2023/08/19 12:05:53;;;;;;;9.57;8.77;;;;;;;;;;4876616;29;20722;-70
2023/08/19 12:08:28;;;;;;;10.43;9.20;;;;;;;;;;4873357;29;20757;-70
2023/08/19 12:10:57;;;;;;;10.43;8.30;;;;;;;;;;4879089;29;20702;-69
2023/08/19 12:13:27;;;;;;;10.73;8.60;;;;;;;;;;4886948;29;20714;-68
2023/08/19 12:15:55;;;;;;;9.20;8.40;;;;;;;;;;4885401;29;20690;-67
2023/08/19 12:18:23;;;;;;;9.17;8.30;;;;;;;;;;4882873;29;20700;-70
2023/08/19 12:20:53;;;;;;;9.27;8.33;;;;;;;;;;4885232;29;21268;-70
2023/08/19 12:23:21;;;;;;;10.43;8.57;;;;;;;;;;4882041;29;20635;-69
2023/08/19 12:25:49;;;;;;;8.90;8.07;;;;;;;;;;4881348;29;21054;-69
2023/08/19 12:28:19;;;;;;;9.27;8.43;;;;;;;;;;4878336;29;21082;-70
2023/08/19 12:30:48;;;;;;;9.03;8.43;;;;;;;;;;4879656;29;20714;-70
2023/08/19 12:33:17;;;;;;;8.87;8.07;;;;;;;;;;4888036;29;20718;-69
2023/08/19 12:35:46;;;;;;;8.83;8.13;;;;;;;;;;4885612;29;20763;-70
2023/08/19 12:38:15;;;;;;;8.10;7.60;;;;;;;;;;4886917;29;20650;-70
2023/08/19 12:40:43;;;;;;;8.23;7.67;;;;;;;;;;4886238;29;20714;-70
2023/08/19 12:43:12;;;;;;;8.13;7.63;;;;;;;;;;4884673;29;20817;-70
2023/08/19 12:45:42;;;;;;;8.40;7.87;;;;;;;;;;4886576;29;20654;-70
2023/08/19 12:48:11;;;;;;;8.97;8.17;;;;;;;;;;4886385;29;20694;-70
2023/08/19 12:50:39;;;;;;;9.67;9.07;;;;;;;;;;4886378;29;20699;-70
2023/08/19 12:53:07;;;;;;;8.60;7.87;;;;;;;;;;4886678;29;20734;-70
2023/08/19 12:55:36;;;;;;;10.23;8.97;;;;;;;;;;4893820;29;20764;-70
2023/08/19 12:58:04;;;;;;;9.50;8.80;;;;;;;;;;4888563;29;20726;-70
2023/08/19 13:00:32;;;;;;;8.40;7.60;;;;;;;;;;4886486;29;20730;-70
2023/08/19 13:03:02;;;;;;;8.93;8.27;;;;;;;;;;4885445;29;20699;-69
2023/08/19 13:05:30;;;;;;;11.20;7.57;;;;;;;;;;4884798;29;20679;-72
2023/08/19 13:07:58;;;;;;;9.13;8.20;;;;;;;;;;4869229;29;21274;-69
2023/08/19 13:10:27;;;;;;;9.03;8.13;;;;;;;;;;4875123;29;20729;-70
2023/08/19 13:12:55;;;;;;;9.20;8.40;;;;;;;;;;4880777;29;21117;-70
2023/08/19 13:15:23;;;;;;;7.63;7.20;;;;;;;;;;4885523;29;20671;-70
2023/08/19 13:17:51;;;;;;;8.93;8.03;;;;;;;;;;4885391;29;20694;-71
2023/08/19 13:20:22;;;;;;;9.47;7.77;;;;;;;;;;4884307;29;20714;-71
2023/08/19 13:22:50;;;;;;;7.97;7.17;;;;;;;;;;4868807;29;20643;-72
2023/08/19 13:25:19;;;;;;;8.30;7.63;;;;;;;;;;4885914;29;20705;-72
2023/08/19 13:27:47;;;;;;;10.37;9.43;;;;;;;;;;4884631;29;20726;-71
2023/08/19 13:30:16;;;;;;;8.60;7.77;;;;;;;;;;4885206;29;20711;-69
2023/08/19 13:32:44;;;;;;;8.53;7.67;;;;;;;;;;4883208;29;21390;-68
2023/08/19 13:35:12;;;;;;;8.73;8.00;;;;;;;;;;4883494;29;20691;-67
2023/08/19 13:37:42;;;;;;;9.17;8.47;;;;;;;;;;4863562;29;20714;-69
2023/08/19 13:40:10;;;;;;;8.93;8.33;;;;;;;;;;4873964;29;20768;-70
2023/08/19 13:42:38;;;;;;;8.57;7.70;;;;;;;;;;4880106;29;20714;-69
2023/08/19 13:45:08;;;;;;;9.87;9.27;;;;;;;;;;4886908;29;20691;-70
2023/08/19 13:47:36;;;;;;;9.50;8.60;;;;;;;;;;4870270;29;20697;-70
2023/08/19 13:50:05;;;;;;;14.23;8.67;;;;;;;;;;4868128;29;20684;-70
2023/08/19 13:52:38;;;;;;;9.10;8.30;;;;;;;;;;4869437;29;20723;-68
2023/08/19 13:55:08;;;;;;;9.10;8.53;;;;;;;;;;4868873;29;20680;-70
2023/08/19 13:57:36;;;;;;;10.70;8.70;;;;;;;;;;4869038;29;20727;-70
2023/08/19 14:00:10;;;;;;;10.87;9.37;;;;;;;;;;4867891;29;20688;-70
2023/08/19 14:02:41;;;;;;;8.80;8.00;;;;;;;;;;4867787;29;20679;-71
2023/08/19 14:05:12;;;;;;;8.70;8.03;;;;;;;;;;4865183;29;20668;-70
2023/08/19 14:07:41;;;;;;;9.07;8.00;;;;;;;;;;4868127;29;20699;-70
2023/08/19 14:10:11;;;;;;;11.03;8.70;;;;;;;;;;4878557;29;20726;-70
2023/08/19 14:12:39;;;;;;;9.53;8.73;;;;;;;;;;4885650;29;20752;-70
2023/08/19 14:15:08;;;;;;;10.03;9.10;;;;;;;;;;4867332;29;20711;-70
2023/08/19 14:17:37;;;;;;;10.60;9.73;;;;;;;;;;4868685;29;20752;-70
2023/08/19 14:20:05;;;;;;;10.50;9.70;;;;;;;;;;4868028;29;20715;-70
2023/08/19 14:22:33;;;;;;;10.00;9.50;;;;;;;;;;4869513;29;20718;-69
2023/08/19 14:25:01;;;;;;;10.30;9.40;;;;;;;;;;4866946;29;21003;-68
2023/08/19 14:27:33;;;;;;;10.60;10.00;;;;;;;;;;4868914;29;20680;-68
2023/08/19 14:30:01;;;;;;;10.43;9.53;;;;;;;;;;4866765;29;20691;-69
2023/08/19 14:32:29;;;;;;;10.47;9.87;;;;;;;;;;4868249;29;20735;-68
2023/08/19 14:34:57;;;;;;;10.73;10.03;;;;;;;;;;4865611;29;21354;-68
2023/08/19 14:37:26;;;;;;;11.50;10.40;;;;;;;;;;4867465;29;20756;-68
2023/08/19 14:39:54;;;;;;;10.80;10.10;;;;;;;;;;4866866;29;20706;-69
2023/08/19 14:42:39;;;;;;;11.70;10.53;;;;;;;;;;4868656;29;20646;-70
2023/08/19 14:45:08;;;;;;;11.00;10.03;;;;;;;;;;4867991;29;20719;-71
2023/08/19 14:47:36;;;;;;;11.03;10.43;;;;;;;;;;4867821;29;21094;-70
2023/08/19 14:50:04;;;;;;;12.13;10.97;;;;;;;;;;4885235;29;20707;-70